sensor_id;sensor_type;location;lat;lon;timestamp;P1;durP1;ratioP1;P2;durP2;ratioP2
67548;SDS011;54382;53.524;49.326;2022-07-24T00:01:41;27.87;;;7.35;;
67548;SDS011;54382;53.524;49.326;2022-07-24T00:04:08;21.48;;;6.05;;
67548;SDS011;54382;53.524;49.326;2022-07-24T00:06:34;24.02;;;6.80;;
67548;SDS011;54382;53.524;49.326;2022-07-24T00:09:02;18.62;;;7.62;;
67548;SDS011;54382;53.524;49.326;2022-07-24T00:11:29;12.37;;;6.68;;
67548;SDS011;54382;53.524;49.326;2022-07-24T00:13:56;21.52;;;7.35;;
67548;SDS011;54382;53.524;49.326;2022-07-24T00:16:22;21.48;;;7.93;;
67548;SDS011;54382;53.524;49.326;2022-07-24T00:18:49;15.55;;;8.43;;
67548;SDS011;54382;53.524;49.326;2022-07-24T00:21:16;19.77;;;7.53;;
67548;SDS011;54382;53.524;49.326;2022-07-24T00:23:43;11.05;;;7.75;;
67548;SDS011;54382;53.524;49.326;2022-07-24T00:26:10;13.43;;;7.15;;
67548;SDS011;54382;53.524;49.326;2022-07-24T00:28:37;20.58;;;7.43;;
67548;SDS011;54382;53.524;49.326;2022-07-24T00:31:04;13.48;;;6.80;;
67548;SDS011;54382;53.524;49.326;2022-07-24T00:33:31;16.35;;;7.65;;
67548;SDS011;54382;53.524;49.326;2022-07-24T00:35:57;17.62;;;8.05;;
67548;SDS011;54382;53.524;49.326;2022-07-24T00:38:24;20.73;;;7.68;;
67548;SDS011;54382;53.524;49.326;2022-07-24T00:40:51;26.67;;;7.60;;
67548;SDS011;54382;53.524;49.326;2022-07-24T00:43:18;19.98;;;7.10;;
67548;SDS011;54382;53.524;49.326;2022-07-24T00:45:45;21.75;;;7.47;;
67548;SDS011;54382;53.524;49.326;2022-07-24T00:48:11;13.82;;;7.07;;
67548;SDS011;54382;53.524;49.326;2022-07-24T00:50:38;14.75;;;7.85;;
67548;SDS011;54382;53.524;49.326;2022-07-24T00:53:07;16.55;;;6.82;;
67548;SDS011;54382;53.524;49.326;2022-07-24T00:55:40;24.23;;;7.22;;
67548;SDS011;54382;53.524;49.326;2022-07-24T00:58:08;18.90;;;7.75;;
67548;SDS011;54382;53.524;49.326;2022-07-24T01:00:35;13.27;;;6.97;;
67548;SDS011;54382;53.524;49.326;2022-07-24T01:03:02;16.33;;;7.43;;
67548;SDS011;54382;53.524;49.326;2022-07-24T01:05:28;23.27;;;7.68;;
67548;SDS011;54382;53.524;49.326;2022-07-24T01:07:55;18.95;;;7.90;;
67548;SDS011;54382;53.524;49.326;2022-07-24T01:10:22;22.52;;;7.82;;
67548;SDS011;54382;53.524;49.326;2022-07-24T01:12:48;16.62;;;7.53;;
67548;SDS011;54382;53.524;49.326;2022-07-24T01:15:15;13.88;;;7.40;;
67548;SDS011;54382;53.524;49.326;2022-07-24T01:17:42;15.50;;;7.20;;
67548;SDS011;54382;53.524;49.326;2022-07-24T01:20:09;15.25;;;6.60;;
67548;SDS011;54382;53.524;49.326;2022-07-24T01:22:37;15.60;;;6.70;;
67548;SDS011;54382;53.524;49.326;2022-07-24T01:25:03;11.75;;;6.43;;
67548;SDS011;54382;53.524;49.326;2022-07-24T01:27:31;21.20;;;6.95;;
67548;SDS011;54382;53.524;49.326;2022-07-24T01:29:57;25.65;;;7.25;;
67548;SDS011;54382;53.524;49.326;2022-07-24T01:32:24;13.82;;;6.95;;
67548;SDS011;54382;53.524;49.326;2022-07-24T01:34:50;24.37;;;7.05;;
67548;SDS011;54382;53.524;49.326;2022-07-24T01:37:17;12.18;;;6.68;;
67548;SDS011;54382;53.524;49.326;2022-07-24T01:39:44;13.88;;;7.40;;
67548;SDS011;54382;53.524;49.326;2022-07-24T01:42:10;14.23;;;7.05;;
67548;SDS011;54382;53.524;49.326;2022-07-24T01:44:37;13.30;;;6.70;;
67548;SDS011;54382;53.524;49.326;2022-07-24T01:47:04;15.95;;;8.23;;
67548;SDS011;54382;53.524;49.326;2022-07-24T01:49:30;14.82;;;7.37;;
67548;SDS011;54382;53.524;49.326;2022-07-24T01:51:57;16.17;;;6.75;;
67548;SDS011;54382;53.524;49.326;2022-07-24T01:54:23;15.57;;;8.15;;
67548;SDS011;54382;53.524;49.326;2022-07-24T01:56:50;17.98;;;7.62;;
67548;SDS011;54382;53.524;49.326;2022-07-24T01:59:17;16.30;;;6.87;;
67548;SDS011;54382;53.524;49.326;2022-07-24T02:01:43;20.08;;;8.02;;
67548;SDS011;54382;53.524;49.326;2022-07-24T02:04:10;14.30;;;7.55;;
67548;SDS011;54382;53.524;49.326;2022-07-24T02:06:36;18.58;;;9.07;;
67548;SDS011;54382;53.524;49.326;2022-07-24T02:09:03;16.95;;;8.68;;
67548;SDS011;54382;53.524;49.326;2022-07-24T02:11:29;12.73;;;8.00;;
67548;SDS011;54382;53.524;49.326;2022-07-24T02:13:56;17.50;;;7.30;;
67548;SDS011;54382;53.524;49.326;2022-07-24T02:16:25;20.12;;;7.90;;
67548;SDS011;54382;53.524;49.326;2022-07-24T02:18:52;10.85;;;6.47;;
67548;SDS011;54382;53.524;49.326;2022-07-24T02:21:19;10.65;;;6.32;;
67548;SDS011;54382;53.524;49.326;2022-07-24T02:23:45;14.27;;;6.80;;
67548;SDS011;54382;53.524;49.326;2022-07-24T02:26:12;12.32;;;6.12;;
67548;SDS011;54382;53.524;49.326;2022-07-24T02:28:39;12.07;;;7.03;;
67548;SDS011;54382;53.524;49.326;2022-07-24T02:31:06;11.05;;;6.05;;
67548;SDS011;54382;53.524;49.326;2022-07-24T02:33:32;13.52;;;6.28;;
67548;SDS011;54382;53.524;49.326;2022-07-24T02:35:59;18.55;;;7.05;;
67548;SDS011;54382;53.524;49.326;2022-07-24T02:38:26;17.50;;;6.85;;
67548;SDS011;54382;53.524;49.326;2022-07-24T02:40:52;14.10;;;7.15;;
67548;SDS011;54382;53.524;49.326;2022-07-24T02:43:19;15.18;;;6.53;;
67548;SDS011;54382;53.524;49.326;2022-07-24T02:45:45;17.40;;;6.30;;
67548;SDS011;54382;53.524;49.326;2022-07-24T02:48:12;13.65;;;6.55;;
67548;SDS011;54382;53.524;49.326;2022-07-24T02:50:39;13.70;;;7.22;;
67548;SDS011;54382;53.524;49.326;2022-07-24T02:53:05;16.62;;;7.07;;
67548;SDS011;54382;53.524;49.326;2022-07-24T02:55:32;13.30;;;6.95;;
67548;SDS011;54382;53.524;49.326;2022-07-24T02:57:59;12.55;;;6.85;;
67548;SDS011;54382;53.524;49.326;2022-07-24T03:00:26;12.52;;;6.65;;
67548;SDS011;54382;53.524;49.326;2022-07-24T03:02:52;12.52;;;7.20;;
67548;SDS011;54382;53.524;49.326;2022-07-24T03:05:19;12.30;;;6.72;;
67548;SDS011;54382;53.524;49.326;2022-07-24T03:07:46;15.20;;;7.03;;
67548;SDS011;54382;53.524;49.326;2022-07-24T03:10:14;18.58;;;8.60;;
67548;SDS011;54382;53.524;49.326;2022-07-24T03:12:41;11.05;;;6.03;;
67548;SDS011;54382;53.524;49.326;2022-07-24T03:15:08;18.23;;;7.40;;
67548;SDS011;54382;53.524;49.326;2022-07-24T03:17:36;13.50;;;6.80;;
67548;SDS011;54382;53.524;49.326;2022-07-24T03:20:03;9.40;;;6.57;;
67548;SDS011;54382;53.524;49.326;2022-07-24T03:22:31;13.02;;;7.05;;
67548;SDS011;54382;53.524;49.326;2022-07-24T03:24:58;14.70;;;7.40;;
67548;SDS011;54382;53.524;49.326;2022-07-24T03:27:26;11.25;;;7.20;;
67548;SDS011;54382;53.524;49.326;2022-07-24T03:29:53;13.38;;;6.85;;
67548;SDS011;54382;53.524;49.326;2022-07-24T03:32:19;14.45;;;6.82;;
67548;SDS011;54382;53.524;49.326;2022-07-24T03:34:46;9.48;;;6.43;;
67548;SDS011;54382;53.524;49.326;2022-07-24T03:37:12;14.25;;;6.57;;
67548;SDS011;54382;53.524;49.326;2022-07-24T03:39:39;11.65;;;6.35;;
67548;SDS011;54382;53.524;49.326;2022-07-24T03:42:06;10.45;;;6.72;;
67548;SDS011;54382;53.524;49.326;2022-07-24T03:44:32;12.55;;;6.70;;
67548;SDS011;54382;53.524;49.326;2022-07-24T03:46:59;14.70;;;6.25;;
67548;SDS011;54382;53.524;49.326;2022-07-24T03:49:25;14.25;;;7.10;;
67548;SDS011;54382;53.524;49.326;2022-07-24T03:51:52;13.35;;;6.90;;
67548;SDS011;54382;53.524;49.326;2022-07-24T03:54:18;14.60;;;7.07;;
67548;SDS011;54382;53.524;49.326;2022-07-24T03:56:45;19.35;;;6.90;;
67548;SDS011;54382;53.524;49.326;2022-07-24T03:59:24;11.32;;;7.22;;
67548;SDS011;54382;53.524;49.326;2022-07-24T04:01:51;12.95;;;6.22;;
67548;SDS011;54382;53.524;49.326;2022-07-24T04:04:18;19.60;;;7.35;;
67548;SDS011;54382;53.524;49.326;2022-07-24T04:06:51;15.65;;;7.78;;
67548;SDS011;54382;53.524;49.326;2022-07-24T04:09:18;16.77;;;7.87;;
67548;SDS011;54382;53.524;49.326;2022-07-24T04:11:45;15.20;;;8.30;;
67548;SDS011;54382;53.524;49.326;2022-07-24T04:14:17;11.75;;;7.10;;
67548;SDS011;54382;53.524;49.326;2022-07-24T04:16:44;17.25;;;8.32;;
67548;SDS011;54382;53.524;49.326;2022-07-24T04:19:10;14.95;;;8.18;;
67548;SDS011;54382;53.524;49.326;2022-07-24T04:21:37;16.40;;;8.57;;
67548;SDS011;54382;53.524;49.326;2022-07-24T04:24:03;16.80;;;7.82;;
67548;SDS011;54382;53.524;49.326;2022-07-24T04:26:31;14.98;;;7.65;;
67548;SDS011;54382;53.524;49.326;2022-07-24T04:28:59;14.70;;;7.70;;
67548;SDS011;54382;53.524;49.326;2022-07-24T04:31:25;13.60;;;7.55;;
67548;SDS011;54382;53.524;49.326;2022-07-24T04:33:52;14.45;;;7.45;;
67548;SDS011;54382;53.524;49.326;2022-07-24T04:36:19;17.75;;;8.75;;
67548;SDS011;54382;53.524;49.326;2022-07-24T04:38:45;14.80;;;8.45;;
67548;SDS011;54382;53.524;49.326;2022-07-24T04:41:12;22.15;;;8.32;;
67548;SDS011;54382;53.524;49.326;2022-07-24T04:43:40;23.87;;;11.23;;
67548;SDS011;54382;53.524;49.326;2022-07-24T04:46:06;12.68;;;7.55;;
67548;SDS011;54382;53.524;49.326;2022-07-24T04:48:33;13.05;;;8.15;;
67548;SDS011;54382;53.524;49.326;2022-07-24T04:51:00;13.60;;;8.25;;
67548;SDS011;54382;53.524;49.326;2022-07-24T04:53:26;14.80;;;9.00;;
67548;SDS011;54382;53.524;49.326;2022-07-24T04:55:56;19.48;;;9.55;;
67548;SDS011;54382;53.524;49.326;2022-07-24T04:58:23;21.40;;;9.98;;
67548;SDS011;54382;53.524;49.326;2022-07-24T05:00:51;16.35;;;10.27;;
67548;SDS011;54382;53.524;49.326;2022-07-24T05:03:18;19.30;;;9.35;;
67548;SDS011;54382;53.524;49.326;2022-07-24T05:05:45;19.85;;;9.85;;
67548;SDS011;54382;53.524;49.326;2022-07-24T05:08:11;18.12;;;10.95;;
67548;SDS011;54382;53.524;49.326;2022-07-24T05:10:38;24.60;;;12.05;;
67548;SDS011;54382;53.524;49.326;2022-07-24T05:13:05;24.17;;;12.10;;
67548;SDS011;54382;53.524;49.326;2022-07-24T05:15:31;20.70;;;10.75;;
67548;SDS011;54382;53.524;49.326;2022-07-24T05:17:58;23.25;;;11.45;;
67548;SDS011;54382;53.524;49.326;2022-07-24T05:20:24;32.42;;;15.80;;
67548;SDS011;54382;53.524;49.326;2022-07-24T05:22:51;19.20;;;10.52;;
67548;SDS011;54382;53.524;49.326;2022-07-24T05:25:18;17.23;;;8.50;;
67548;SDS011;54382;53.524;49.326;2022-07-24T05:27:45;15.93;;;7.60;;
67548;SDS011;54382;53.524;49.326;2022-07-24T05:30:12;13.68;;;8.25;;
67548;SDS011;54382;53.524;49.326;2022-07-24T05:32:39;11.57;;;7.22;;
67548;SDS011;54382;53.524;49.326;2022-07-24T05:35:05;12.37;;;5.93;;
67548;SDS011;54382;53.524;49.326;2022-07-24T05:37:33;12.45;;;7.28;;
67548;SDS011;54382;53.524;49.326;2022-07-24T05:39:59;16.30;;;6.75;;
67548;SDS011;54382;53.524;49.326;2022-07-24T05:42:26;16.27;;;7.05;;
67548;SDS011;54382;53.524;49.326;2022-07-24T05:44:53;15.80;;;6.70;;
67548;SDS011;54382;53.524;49.326;2022-07-24T05:47:19;9.50;;;6.18;;
67548;SDS011;54382;53.524;49.326;2022-07-24T05:49:46;15.00;;;6.18;;
67548;SDS011;54382;53.524;49.326;2022-07-24T05:52:13;9.90;;;6.85;;
67548;SDS011;54382;53.524;49.326;2022-07-24T05:54:39;14.00;;;6.65;;
67548;SDS011;54382;53.524;49.326;2022-07-24T05:57:06;13.62;;;6.10;;
67548;SDS011;54382;53.524;49.326;2022-07-24T05:59:32;10.98;;;6.78;;
67548;SDS011;54382;53.524;49.326;2022-07-24T06:01:59;11.98;;;6.30;;
67548;SDS011;54382;53.524;49.326;2022-07-24T06:04:29;12.10;;;6.40;;
67548;SDS011;54382;53.524;49.326;2022-07-24T06:06:56;13.43;;;6.05;;
67548;SDS011;54382;53.524;49.326;2022-07-24T06:09:23;7.15;;;5.22;;
67548;SDS011;54382;53.524;49.326;2022-07-24T06:11:49;11.27;;;6.30;;
67548;SDS011;54382;53.524;49.326;2022-07-24T06:14:16;9.63;;;5.65;;
67548;SDS011;54382;53.524;49.326;2022-07-24T06:16:43;14.15;;;5.70;;
67548;SDS011;54382;53.524;49.326;2022-07-24T06:19:09;7.10;;;5.32;;
67548;SDS011;54382;53.524;49.326;2022-07-24T06:21:36;8.80;;;5.50;;
67548;SDS011;54382;53.524;49.326;2022-07-24T06:24:02;11.15;;;6.10;;
67548;SDS011;54382;53.524;49.326;2022-07-24T06:26:29;13.77;;;6.00;;
67548;SDS011;54382;53.524;49.326;2022-07-24T06:28:56;9.82;;;5.28;;
67548;SDS011;54382;53.524;49.326;2022-07-24T06:31:23;7.20;;;4.30;;
67548;SDS011;54382;53.524;49.326;2022-07-24T06:33:49;8.35;;;5.07;;
67548;SDS011;54382;53.524;49.326;2022-07-24T06:36:16;17.37;;;4.30;;
67548;SDS011;54382;53.524;49.326;2022-07-24T06:38:42;14.85;;;4.50;;
67548;SDS011;54382;53.524;49.326;2022-07-24T06:41:09;10.02;;;4.53;;
67548;SDS011;54382;53.524;49.326;2022-07-24T06:43:36;12.02;;;4.90;;
67548;SDS011;54382;53.524;49.326;2022-07-24T06:46:02;10.75;;;4.62;;
67548;SDS011;54382;53.524;49.326;2022-07-24T06:48:29;7.05;;;3.72;;
67548;SDS011;54382;53.524;49.326;2022-07-24T06:50:56;19.08;;;4.28;;
67548;SDS011;54382;53.524;49.326;2022-07-24T06:53:23;7.30;;;4.53;;
67548;SDS011;54382;53.524;49.326;2022-07-24T06:55:50;12.23;;;4.35;;
67548;SDS011;54382;53.524;49.326;2022-07-24T06:58:20;9.23;;;3.83;;
67548;SDS011;54382;53.524;49.326;2022-07-24T07:00:48;5.72;;;3.72;;
67548;SDS011;54382;53.524;49.326;2022-07-24T07:03:15;18.00;;;3.95;;
67548;SDS011;54382;53.524;49.326;2022-07-24T07:05:42;8.38;;;3.72;;
67548;SDS011;54382;53.524;49.326;2022-07-24T07:08:09;6.90;;;3.92;;
67548;SDS011;54382;53.524;49.326;2022-07-24T07:10:36;14.27;;;3.72;;
67548;SDS011;54382;53.524;49.326;2022-07-24T07:13:02;10.38;;;3.92;;
67548;SDS011;54382;53.524;49.326;2022-07-24T07:15:29;8.68;;;4.55;;
67548;SDS011;54382;53.524;49.326;2022-07-24T07:17:55;7.37;;;3.72;;
67548;SDS011;54382;53.524;49.326;2022-07-24T07:20:22;20.02;;;4.55;;
67548;SDS011;54382;53.524;49.326;2022-07-24T07:22:49;7.15;;;3.53;;
67548;SDS011;54382;53.524;49.326;2022-07-24T07:25:15;11.63;;;3.60;;
67548;SDS011;54382;53.524;49.326;2022-07-24T07:27:42;12.75;;;3.45;;
67548;SDS011;54382;53.524;49.326;2022-07-24T07:30:09;10.30;;;3.33;;
67548;SDS011;54382;53.524;49.326;2022-07-24T07:32:37;11.05;;;3.72;;
67548;SDS011;54382;53.524;49.326;2022-07-24T07:35:05;5.45;;;2.03;;
67548;SDS011;54382;53.524;49.326;2022-07-24T07:37:33;5.37;;;2.50;;
67548;SDS011;54382;53.524;49.326;2022-07-24T07:39:59;6.85;;;3.60;;
67548;SDS011;54382;53.524;49.326;2022-07-24T07:42:26;11.77;;;3.53;;
67548;SDS011;54382;53.524;49.326;2022-07-24T07:44:53;8.88;;;2.95;;
67548;SDS011;54382;53.524;49.326;2022-07-24T07:47:20;6.70;;;2.67;;
67548;SDS011;54382;53.524;49.326;2022-07-24T07:49:46;12.98;;;2.92;;
67548;SDS011;54382;53.524;49.326;2022-07-24T07:52:13;11.50;;;3.10;;
67548;SDS011;54382;53.524;49.326;2022-07-24T07:54:39;8.52;;;3.03;;
67548;SDS011;54382;53.524;49.326;2022-07-24T07:57:06;4.18;;;2.17;;
67548;SDS011;54382;53.524;49.326;2022-07-24T07:59:33;5.07;;;2.70;;
67548;SDS011;54382;53.524;49.326;2022-07-24T08:01:59;4.65;;;2.60;;
67548;SDS011;54382;53.524;49.326;2022-07-24T08:04:26;3.83;;;2.80;;
67548;SDS011;54382;53.524;49.326;2022-07-24T08:06:52;5.78;;;2.72;;
67548;SDS011;54382;53.524;49.326;2022-07-24T08:09:19;6.25;;;3.05;;
67548;SDS011;54382;53.524;49.326;2022-07-24T08:11:46;10.02;;;2.62;;
67548;SDS011;54382;53.524;49.326;2022-07-24T08:14:13;7.45;;;2.65;;
67548;SDS011;54382;53.524;49.326;2022-07-24T08:16:39;4.12;;;2.40;;
67548;SDS011;54382;53.524;49.326;2022-07-24T08:19:06;6.47;;;2.65;;
67548;SDS011;54382;53.524;49.326;2022-07-24T08:21:32;5.60;;;2.83;;
67548;SDS011;54382;53.524;49.326;2022-07-24T08:23:59;6.47;;;2.35;;
67548;SDS011;54382;53.524;49.326;2022-07-24T08:26:26;4.72;;;2.15;;
67548;SDS011;54382;53.524;49.326;2022-07-24T08:28:57;6.55;;;2.35;;
67548;SDS011;54382;53.524;49.326;2022-07-24T08:31:25;4.82;;;2.10;;
67548;SDS011;54382;53.524;49.326;2022-07-24T08:33:52;5.57;;;2.60;;
67548;SDS011;54382;53.524;49.326;2022-07-24T08:36:19;3.17;;;2.12;;
67548;SDS011;54382;53.524;49.326;2022-07-24T08:38:46;7.53;;;2.40;;
67548;SDS011;54382;53.524;49.326;2022-07-24T08:41:13;6.12;;;1.90;;
67548;SDS011;54382;53.524;49.326;2022-07-24T08:43:41;6.87;;;2.03;;
67548;SDS011;54382;53.524;49.326;2022-07-24T08:46:08;6.57;;;1.70;;
67548;SDS011;54382;53.524;49.326;2022-07-24T08:48:39;13.23;;;1.92;;
67548;SDS011;54382;53.524;49.326;2022-07-24T08:51:12;2.72;;;2.05;;
67548;SDS011;54382;53.524;49.326;2022-07-24T08:53:40;10.27;;;2.80;;
67548;SDS011;54382;53.524;49.326;2022-07-24T08:56:09;5.85;;;2.80;;
67548;SDS011;54382;53.524;49.326;2022-07-24T08:58:37;4.43;;;2.62;;
67548;SDS011;54382;53.524;49.326;2022-07-24T09:01:05;17.50;;;2.83;;
67548;SDS011;54382;53.524;49.326;2022-07-24T09:03:42;6.55;;;2.40;;
67548;SDS011;54382;53.524;49.326;2022-07-24T09:06:11;2.67;;;1.45;;
67548;SDS011;54382;53.524;49.326;2022-07-24T09:08:43;5.05;;;2.15;;
67548;SDS011;54382;53.524;49.326;2022-07-24T09:11:28;7.15;;;2.45;;
67548;SDS011;54382;53.524;49.326;2022-07-24T09:14:01;6.37;;;2.08;;
67548;SDS011;54382;53.524;49.326;2022-07-24T09:16:46;6.00;;;2.47;;
67548;SDS011;54382;53.524;49.326;2022-07-24T09:19:13;6.22;;;2.45;;
67548;SDS011;54382;53.524;49.326;2022-07-24T09:21:41;4.90;;;2.87;;
67548;SDS011;54382;53.524;49.326;2022-07-24T09:24:13;5.47;;;2.25;;
67548;SDS011;54382;53.524;49.326;2022-07-24T09:26:44;10.02;;;2.62;;
67548;SDS011;54382;53.524;49.326;2022-07-24T09:29:17;3.72;;;1.92;;
67548;SDS011;54382;53.524;49.326;2022-07-24T09:34:20;8.77;;;2.75;;
67548;SDS011;54382;53.524;49.326;2022-07-24T09:37:08;5.70;;;2.65;;
67548;SDS011;54382;53.524;49.326;2022-07-24T09:39:35;10.55;;;2.80;;
67548;SDS011;54382;53.524;49.326;2022-07-24T09:42:04;7.10;;;2.55;;
67548;SDS011;54382;53.524;49.326;2022-07-24T09:44:32;6.62;;;3.08;;
67548;SDS011;54382;53.524;49.326;2022-07-24T09:47:02;4.97;;;2.65;;
67548;SDS011;54382;53.524;49.326;2022-07-24T09:49:31;5.07;;;2.78;;
67548;SDS011;54382;53.524;49.326;2022-07-24T09:54:37;6.60;;;2.30;;
67548;SDS011;54382;53.524;49.326;2022-07-24T09:59:51;6.78;;;2.28;;
67548;SDS011;54382;53.524;49.326;2022-07-24T10:02:33;4.05;;;2.40;;
67548;SDS011;54382;53.524;49.326;2022-07-24T10:05:02;5.18;;;2.40;;
67548;SDS011;54382;53.524;49.326;2022-07-24T10:07:31;5.25;;;2.45;;
67548;SDS011;54382;53.524;49.326;2022-07-24T10:09:59;8.77;;;2.62;;
67548;SDS011;54382;53.524;49.326;2022-07-24T10:12:29;4.05;;;2.20;;
67548;SDS011;54382;53.524;49.326;2022-07-24T10:14:58;12.55;;;3.10;;
67548;SDS011;54382;53.524;49.326;2022-07-24T10:20:13;6.87;;;2.80;;
67548;SDS011;54382;53.524;49.326;2022-07-24T10:23:07;5.25;;;2.95;;
67548;SDS011;54382;53.524;49.326;2022-07-24T10:25:52;6.12;;;2.37;;
67548;SDS011;54382;53.524;49.326;2022-07-24T10:28:34;6.37;;;2.80;;
67548;SDS011;54382;53.524;49.326;2022-07-24T10:31:08;5.72;;;2.37;;
67548;SDS011;54382;53.524;49.326;2022-07-24T10:33:40;3.80;;;2.72;;
67548;SDS011;54382;53.524;49.326;2022-07-24T10:36:16;5.90;;;2.90;;
67548;SDS011;54382;53.524;49.326;2022-07-24T10:38:58;8.43;;;2.50;;
67548;SDS011;54382;53.524;49.326;2022-07-24T10:41:30;6.68;;;3.53;;
67548;SDS011;54382;53.524;49.326;2022-07-24T10:46:58;7.93;;;3.35;;
67548;SDS011;54382;53.524;49.326;2022-07-24T10:52:30;4.75;;;2.65;;
67548;SDS011;54382;53.524;49.326;2022-07-24T11:00:36;8.75;;;3.25;;
67548;SDS011;54382;53.524;49.326;2022-07-24T11:03:28;5.80;;;3.12;;
67548;SDS011;54382;53.524;49.326;2022-07-24T11:06:07;6.37;;;3.70;;
67548;SDS011;54382;53.524;49.326;2022-07-24T11:11:12;9.45;;;3.42;;
67548;SDS011;54382;53.524;49.326;2022-07-24T11:13:48;14.02;;;3.35;;
67548;SDS011;54382;53.524;49.326;2022-07-24T11:16:23;11.85;;;4.40;;
67548;SDS011;54382;53.524;49.326;2022-07-24T11:21:37;6.32;;;2.97;;
67548;SDS011;54382;53.524;49.326;2022-07-24T11:26:48;5.70;;;2.85;;
67548;SDS011;54382;53.524;49.326;2022-07-24T11:29:22;12.68;;;3.35;;
67548;SDS011;54382;53.524;49.326;2022-07-24T11:31:58;9.05;;;4.12;;
67548;SDS011;54382;53.524;49.326;2022-07-24T11:34:33;9.88;;;3.45;;
67548;SDS011;54382;53.524;49.326;2022-07-24T11:37:02;6.10;;;2.90;;
67548;SDS011;54382;53.524;49.326;2022-07-24T11:39:35;8.38;;;3.10;;
67548;SDS011;54382;53.524;49.326;2022-07-24T11:42:08;5.97;;;3.00;;
67548;SDS011;54382;53.524;49.326;2022-07-24T11:44:38;8.15;;;3.40;;
67548;SDS011;54382;53.524;49.326;2022-07-24T11:47:11;6.78;;;2.97;;
67548;SDS011;54382;53.524;49.326;2022-07-24T11:49:50;5.43;;;2.67;;
67548;SDS011;54382;53.524;49.326;2022-07-24T11:52:24;9.00;;;3.30;;
67548;SDS011;54382;53.524;49.326;2022-07-24T11:54:57;10.02;;;2.30;;
67548;SDS011;54382;53.524;49.326;2022-07-24T11:57:33;6.87;;;3.10;;
67548;SDS011;54382;53.524;49.326;2022-07-24T12:00:04;4.82;;;2.10;;
67548;SDS011;54382;53.524;49.326;2022-07-24T12:02:35;4.70;;;2.33;;
67548;SDS011;54382;53.524;49.326;2022-07-24T12:05:03;5.45;;;2.60;;
67548;SDS011;54382;53.524;49.326;2022-07-24T12:07:30;5.37;;;3.50;;
67548;SDS011;54382;53.524;49.326;2022-07-24T12:09:58;5.85;;;2.50;;
67548;SDS011;54382;53.524;49.326;2022-07-24T12:12:27;6.85;;;3.20;;
67548;SDS011;54382;53.524;49.326;2022-07-24T12:15:00;5.37;;;2.72;;
67548;SDS011;54382;53.524;49.326;2022-07-24T12:17:32;5.60;;;3.12;;
67548;SDS011;54382;53.524;49.326;2022-07-24T12:23:01;5.93;;;2.65;;
67548;SDS011;54382;53.524;49.326;2022-07-24T12:25:31;16.17;;;2.80;;
67548;SDS011;54382;53.524;49.326;2022-07-24T12:28:12;7.55;;;2.40;;
67548;SDS011;54382;53.524;49.326;2022-07-24T12:30:47;7.37;;;1.65;;
67548;SDS011;54382;53.524;49.326;2022-07-24T12:33:20;4.25;;;2.37;;
67548;SDS011;54382;53.524;49.326;2022-07-24T12:36:03;5.97;;;2.17;;
67548;SDS011;54382;53.524;49.326;2022-07-24T12:43:30;5.43;;;2.57;;
67548;SDS011;54382;53.524;49.326;2022-07-24T12:46:46;5.68;;;2.72;;
67548;SDS011;54382;53.524;49.326;2022-07-24T12:49:16;9.65;;;2.35;;
67548;SDS011;54382;53.524;49.326;2022-07-24T12:51:44;7.90;;;3.05;;
67548;SDS011;54382;53.524;49.326;2022-07-24T12:54:25;8.30;;;2.83;;
67548;SDS011;54382;53.524;49.326;2022-07-24T12:57:01;6.62;;;2.53;;
67548;SDS011;54382;53.524;49.326;2022-07-24T12:59:37;5.95;;;2.90;;
67548;SDS011;54382;53.524;49.326;2022-07-24T13:02:06;13.60;;;2.60;;
67548;SDS011;54382;53.524;49.326;2022-07-24T13:04:45;7.57;;;2.87;;
67548;SDS011;54382;53.524;49.326;2022-07-24T13:07:21;8.30;;;3.55;;
67548;SDS011;54382;53.524;49.326;2022-07-24T13:09:50;7.55;;;3.22;;
67548;SDS011;54382;53.524;49.326;2022-07-24T13:12:18;5.90;;;2.37;;
67548;SDS011;54382;53.524;49.326;2022-07-24T13:14:46;12.88;;;2.55;;
67548;SDS011;54382;53.524;49.326;2022-07-24T13:17:14;5.50;;;3.00;;
67548;SDS011;54382;53.524;49.326;2022-07-24T13:19:43;10.88;;;2.90;;
67548;SDS011;54382;53.524;49.326;2022-07-24T13:22:13;17.17;;;3.45;;
67548;SDS011;54382;53.524;49.326;2022-07-24T13:24:40;13.85;;;3.78;;
67548;SDS011;54382;53.524;49.326;2022-07-24T13:27:09;10.05;;;3.97;;
67548;SDS011;54382;53.524;49.326;2022-07-24T13:29:38;5.95;;;2.97;;
67548;SDS011;54382;53.524;49.326;2022-07-24T13:32:05;8.13;;;3.55;;
67548;SDS011;54382;53.524;49.326;2022-07-24T13:34:35;12.20;;;3.72;;
67548;SDS011;54382;53.524;49.326;2022-07-24T13:37:50;15.15;;;3.60;;
67548;SDS011;54382;53.524;49.326;2022-07-24T13:40:16;7.60;;;3.17;;
67548;SDS011;54382;53.524;49.326;2022-07-24T13:42:46;13.27;;;3.83;;
67548;SDS011;54382;53.524;49.326;2022-07-24T13:45:13;10.55;;;3.50;;
67548;SDS011;54382;53.524;49.326;2022-07-24T13:47:39;8.77;;;3.47;;
67548;SDS011;54382;53.524;49.326;2022-07-24T13:50:06;11.73;;;4.28;;
67548;SDS011;54382;53.524;49.326;2022-07-24T13:52:34;15.63;;;4.78;;
67548;SDS011;54382;53.524;49.326;2022-07-24T13:55:00;13.45;;;4.57;;
67548;SDS011;54382;53.524;49.326;2022-07-24T13:57:27;10.68;;;4.60;;
67548;SDS011;54382;53.524;49.326;2022-07-24T13:59:55;10.50;;;4.60;;
67548;SDS011;54382;53.524;49.326;2022-07-24T14:02:22;9.38;;;4.60;;
67548;SDS011;54382;53.524;49.326;2022-07-24T14:04:48;9.40;;;4.20;;
67548;SDS011;54382;53.524;49.326;2022-07-24T14:07:15;9.05;;;4.45;;
67548;SDS011;54382;53.524;49.326;2022-07-24T14:09:42;9.15;;;4.62;;
67548;SDS011;54382;53.524;49.326;2022-07-24T14:12:08;9.65;;;4.37;;
67548;SDS011;54382;53.524;49.326;2022-07-24T14:14:35;19.70;;;4.82;;
67548;SDS011;54382;53.524;49.326;2022-07-24T14:17:02;16.37;;;5.05;;
67548;SDS011;54382;53.524;49.326;2022-07-24T14:19:29;9.05;;;4.32;;
67548;SDS011;54382;53.524;49.326;2022-07-24T14:21:55;20.65;;;5.45;;
67548;SDS011;54382;53.524;49.326;2022-07-24T14:24:22;15.68;;;5.37;;
67548;SDS011;54382;53.524;49.326;2022-07-24T14:26:49;10.88;;;4.70;;
67548;SDS011;54382;53.524;49.326;2022-07-24T14:29:16;14.30;;;4.37;;
67548;SDS011;54382;53.524;49.326;2022-07-24T14:31:43;22.15;;;5.60;;
67548;SDS011;54382;53.524;49.326;2022-07-24T14:34:10;17.85;;;5.65;;
67548;SDS011;54382;53.524;49.326;2022-07-24T14:36:36;14.02;;;5.90;;
67548;SDS011;54382;53.524;49.326;2022-07-24T14:39:03;9.70;;;4.62;;
67548;SDS011;54382;53.524;49.326;2022-07-24T14:41:31;13.73;;;4.80;;
67548;SDS011;54382;53.524;49.326;2022-07-24T14:43:58;13.60;;;5.22;;
67548;SDS011;54382;53.524;49.326;2022-07-24T14:46:24;18.62;;;5.28;;
67548;SDS011;54382;53.524;49.326;2022-07-24T14:48:51;18.20;;;5.10;;
67548;SDS011;54382;53.524;49.326;2022-07-24T14:51:17;21.70;;;5.12;;
67548;SDS011;54382;53.524;49.326;2022-07-24T14:53:44;16.60;;;5.45;;
67548;SDS011;54382;53.524;49.326;2022-07-24T14:56:11;17.45;;;5.47;;
67548;SDS011;54382;53.524;49.326;2022-07-24T14:58:38;13.25;;;4.50;;
67548;SDS011;54382;53.524;49.326;2022-07-24T15:01:05;20.90;;;5.15;;
67548;SDS011;54382;53.524;49.326;2022-07-24T15:03:31;17.95;;;5.12;;
67548;SDS011;54382;53.524;49.326;2022-07-24T15:05:58;24.12;;;5.25;;
67548;SDS011;54382;53.524;49.326;2022-07-24T15:08:25;18.27;;;5.22;;
67548;SDS011;54382;53.524;49.326;2022-07-24T15:10:52;18.37;;;5.15;;
67548;SDS011;54382;53.524;49.326;2022-07-24T15:13:18;14.90;;;5.43;;